Time;durP1;ratioP1;P1;durP2;ratioP2;P2;SDS_P1;SDS_P2;PMS_P1;PMS_P2;Temp;Humidity;BMP_temperature;BMP_pressure;BME280_temperature;BME280_humidity;BME280_pressure;Samples;Min_cycle;Max_cycle;Signal;HPM_P1;HPM_P2
2022/04/01 00:00:15;;;;;;;0.80;0.80;;;5.00;99.90;;;;;;4935421;29;20166;-61
2022/04/01 00:02:41;;;;;;;1.55;1.33;;;5.00;99.90;;;;;;4935854;29;20036;-61
2022/04/01 00:05:08;;;;;;;1.25;0.70;;;5.00;99.90;;;;;;4935595;29;20369;-61
2022/04/01 00:07:35;;;;;;;0.25;0.25;;;5.00;99.90;;;;;;4934275;29;20066;-61
2022/04/01 00:10:03;;;;;;;0.65;0.65;;;5.00;99.90;;;;;;4935537;29;20035;-61
2022/04/01 00:12:28;;;;;;;0.47;0.47;;;5.00;99.90;;;;;;4950054;29;20110;-61
2022/04/01 00:14:55;;;;;;;0.25;0.25;;;5.00;99.90;;;;;;4934043;29;20130;-61
2022/04/01 00:17:21;;;;;;;1.17;1.08;;;5.00;99.90;;;;;;4935271;29;20035;-61
2022/04/01 00:19:46;;;;;;;0.82;0.80;;;5.00;99.90;;;;;;4934142;29;20540;-61
2022/04/01 00:22:12;;;;;;;1.25;1.15;;;5.00;99.90;;;;;;4934326;29;20119;-61
2022/04/01 00:24:38;;;;;;;0.90;0.90;;;5.10;99.90;;;;;;4935222;29;20055;-61
2022/04/01 00:27:04;;;;;;;0.40;0.40;;;5.10;99.90;;;;;;4934880;29;20466;-61
2022/04/01 00:29:30;;;;;;;0.40;0.40;;;5.10;99.90;;;;;;4933858;29;20048;-61
2022/04/01 00:32:00;;;;;;;0.10;0.10;;;5.10;99.90;;;;;;4949945;29;20489;-61
2022/04/01 00:34:31;;;;;;;1.63;1.52;;;5.10;99.90;;;;;;4933813;29;20397;-61
2022/04/01 00:36:59;;;;;;;0.30;0.30;;;5.10;99.90;;;;;;4933404;29;20028;-61
2022/04/01 00:39:29;;;;;;;0.77;0.77;;;5.00;99.90;;;;;;4934853;29;20048;-61
2022/04/01 00:41:56;;;;;;;0.30;0.30;;;5.00;99.90;;;;;;4933496;29;20040;-61
2022/04/01 00:44:31;;;;;;;0.85;0.85;;;5.00;99.90;;;;;;4933540;29;20060;-61
2022/04/01 00:47:04;;;;;;;0.10;0.10;;;5.00;99.90;;;;;;4933366;29;20035;-61
2022/04/01 00:49:31;;;;;;;0.22;0.22;;;4.90;99.90;;;;;;4917973;29;20571;-61
2022/04/01 00:52:00;;;;;;;0.65;0.65;;;4.90;99.90;;;;;;4934842;29;20030;-61
2022/04/01 00:54:27;;;;;;;0.80;0.80;;;4.90;99.90;;;;;;4934753;29;20036;-61
2022/04/01 00:56:54;;;;;;;0.55;0.55;;;4.80;99.90;;;;;;4934603;29;20046;-61
2022/04/01 00:59:21;;;;;;;1.17;0.65;;;4.80;99.90;;;;;;4962382;23;20149;-61
2022/04/01 01:01:49;;;;;;;2.10;0.80;;;4.80;99.90;;;;;;4972746;28;20503;-60
2022/04/01 01:04:17;;;;;;;0.82;0.82;;;4.80;99.90;;;;;;4953638;28;20057;-60
2022/04/01 01:06:55;;;;;;;3.30;1.13;;;4.80;99.90;;;;;;4951177;28;20027;-61
2022/04/01 01:09:23;;;;;;;0.10;0.10;;;4.80;99.90;;;;;;4967517;28;20069;-61
2022/04/01 01:11:51;;;;;;;0.85;0.77;;;4.70;99.90;;;;;;4948750;28;20034;-61
2022/04/01 01:14:34;;;;;;;0.30;0.30;;;4.70;99.90;;;;;;4972552;28;20057;-61
2022/04/01 01:17:03;;;;;;;0.10;0.10;;;4.80;99.90;;;;;;4951823;29;20550;-61
2022/04/01 01:19:32;;;;;;;1.38;0.73;;;4.80;99.90;;;;;;4952047;29;20050;-61
2022/04/01 01:21:58;;;;;;;1.73;1.33;;;4.80;99.90;;;;;;4952910;28;20090;-61
2022/04/01 01:24:28;;;;;;;0.40;0.40;;;4.80;99.90;;;;;;4962700;28;20031;-61
2022/04/01 01:26:55;;;;;;;0.57;0.57;;;4.70;99.90;;;;;;4972051;28;20027;-61
2022/04/01 01:29:30;;;;;;;1.17;0.95;;;4.70;99.90;;;;;;4970802;28;20109;-61
2022/04/01 01:32:00;;;;;;;0.57;0.57;;;4.70;99.90;;;;;;4972338;28;20035;-62
2022/04/01 01:34:28;;;;;;;1.65;1.55;;;4.70;99.90;;;;;;4972376;28;20026;-62
2022/04/01 01:36:54;;;;;;;6.22;2.75;;;4.70;99.90;;;;;;4971131;28;20104;-62
2022/04/01 01:39:21;;;;;;;0.30;0.30;;;4.70;99.90;;;;;;4971086;28;20026;-62
2022/04/01 01:41:49;;;;;;;0.52;0.47;;;4.70;99.90;;;;;;4970623;28;20111;-62
2022/04/01 01:44:17;;;;;;;0.47;0.47;;;4.60;99.90;;;;;;4971924;28;20027;-62
2022/04/01 01:46:43;;;;;;;3.90;1.48;;;4.60;99.90;;;;;;4970427;28;20031;-62
2022/04/01 01:49:09;;;;;;;0.20;0.20;;;4.60;99.90;;;;;;4971704;28;20035;-62
2022/04/01 01:57:06;;;;;;;0.05;0.05;;;4.60;99.90;;;;;;4971791;28;20109;-61
2022/04/01 01:59:33;;;;;;;0.32;0.32;;;4.50;99.90;;;;;;4954386;28;20571;-62
2022/04/01 02:02:00;;;;;;;0.40;0.40;;;4.60;99.90;;;;;;4970913;28;20491;-61
2022/04/01 02:04:26;;;;;;;0.77;0.77;;;4.50;99.90;;;;;;4971950;28;20104;-62
2022/04/01 02:06:52;;;;;;;1.98;1.48;;;4.60;99.90;;;;;;4954175;28;20038;-61
2022/04/01 02:09:18;;;;;;;0.00;0.00;;;4.60;99.90;;;;;;4971499;28;20035;-62
2022/04/01 02:11:44;;;;;;;0.10;0.10;;;4.60;99.90;;;;;;4971726;28;20031;-62
2022/04/01 02:14:11;;;;;;;1.70;1.52;;;4.60;99.90;;;;;;4971319;28;20034;-62
2022/04/01 02:16:43;;;;;;;0.30;0.30;;;4.60;99.90;;;;;;4970347;28;20026;-62
2022/04/01 02:19:13;;;;;;;2.80;1.00;;;4.60;99.90;;;;;;4970755;28;20045;-61
2022/04/01 02:21:39;;;;;;;0.43;0.43;;;4.50;99.90;;;;;;4970584;28;20039;-62
2022/04/01 02:24:07;;;;;;;0.57;0.57;;;4.60;99.90;;;;;;4970045;28;20027;-61
2022/04/01 02:26:34;;;;;;;0.75;0.75;;;4.60;99.90;;;;;;4970353;28;20031;-62
2022/04/01 02:29:03;;;;;;;0.40;0.40;;;4.50;99.90;;;;;;4971422;28;20186;-62
2022/04/01 02:31:30;;;;;;;0.32;0.32;;;4.50;99.90;;;;;;4971425;28;20033;-62
2022/04/01 02:33:56;;;;;;;0.32;0.32;;;4.50;99.90;;;;;;4971445;28;20034;-62
2022/04/01 02:36:22;;;;;;;0.60;0.60;;;4.50;99.90;;;;;;4969772;28;20027;-61
2022/04/01 02:38:49;;;;;;;1.13;1.13;;;4.50;99.90;;;;;;4970330;28;20082;-62
2022/04/01 02:41:15;;;;;;;0.45;0.20;;;4.50;99.90;;;;;;4971948;28;20038;-62
2022/04/01 02:43:41;;;;;;;4.72;1.33;;;4.50;99.90;;;;;;4971598;28;20058;-62
2022/04/01 02:46:10;;;;;;;0.32;0.32;;;4.50;99.90;;;;;;4974375;28;20077;-62
2022/04/01 02:48:36;;;;;;;1.67;1.58;;;4.50;99.90;;;;;;4974114;28;20023;-62
2022/04/01 02:51:02;;;;;;;0.45;0.45;;;4.50;99.90;;;;;;4975115;28;20049;-61
2022/04/01 02:53:28;;;;;;;3.30;1.08;;;4.50;99.90;;;;;;4975165;28;20492;-62
2022/04/01 02:55:54;;;;;;;2.38;1.05;;;4.50;99.90;;;;;;4974872;28;20114;-62
2022/04/01 02:58:20;;;;;;;0.30;0.30;;;4.50;99.90;;;;;;4973586;28;20034;-62
2022/04/01 03:00:47;;;;;;;1.10;1.10;;;4.50;99.90;;;;;;4973663;28;20479;-61
2022/04/01 03:03:13;;;;;;;0.35;0.35;;;4.40;99.90;;;;;;4975091;28;20517;-61
2022/04/01 03:05:44;;;;;;;1.00;1.00;;;4.40;99.90;;;;;;4974964;28;20113;-60
2022/04/01 03:08:10;;;;;;;1.77;1.67;;;4.40;99.90;;;;;;4973694;28;20518;-60
2022/04/01 03:10:42;;;;;;;1.23;0.88;;;4.40;99.90;;;;;;4974793;28;20069;-60
2022/04/01 03:13:08;;;;;;;2.42;2.25;;;4.40;99.90;;;;;;4974901;28;20033;-60
2022/04/01 03:15:35;;;;;;;0.03;0.03;;;4.40;99.90;;;;;;4974762;28;20031;-60
2022/04/01 03:18:01;;;;;;;3.75;0.90;;;4.40;99.90;;;;;;4973403;28;20042;-60
2022/04/01 03:20:29;;;;;;;0.20;0.20;;;4.40;99.90;;;;;;4974714;28;20039;-60
2022/04/01 03:22:55;;;;;;;0.22;0.22;;;4.40;99.90;;;;;;4973448;28;20030;-60
2022/04/01 03:25:22;;;;;;;0.13;0.13;;;4.40;99.90;;;;;;4974669;28;20031;-60
2022/04/01 03:27:48;;;;;;;2.40;1.30;;;4.40;99.90;;;;;;4974592;28;20034;-61
2022/04/01 03:30:17;;;;;;;0.90;0.90;;;4.40;99.90;;;;;;4973254;28;20040;-60
2022/04/01 03:32:45;;;;;;;0.88;0.88;;;4.40;99.90;;;;;;4973277;28;20075;-60
2022/04/01 03:35:17;;;;;;;0.10;0.10;;;4.40;99.90;;;;;;4974625;28;20030;-60
2022/04/01 03:37:45;;;;;;;0.80;0.80;;;4.40;99.90;;;;;;4973122;28;20038;-60
2022/04/01 03:40:14;;;;;;;0.10;0.10;;;4.40;99.90;;;;;;4972914;28;20483;-60
2022/04/01 03:42:45;;;;;;;0.10;0.10;;;4.30;99.90;;;;;;4974242;28;20466;-60
2022/04/01 03:45:12;;;;;;;;;;;4.30;99.90;;;;;;4974831;28;20467;-60
2022/04/01 03:47:52;;;;;;;1.77;0.80;;;4.40;99.90;;;;;;4974116;28;19910;-60
2022/04/01 03:50:29;;;;;;;0.13;0.13;;;4.40;99.90;;;;;;4973124;28;20037;-60
2022/04/01 03:53:02;;;;;;;1.45;1.38;;;4.30;99.90;;;;;;4973239;28;20039;-60
2022/04/01 03:55:32;;;;;;;1.20;0.98;;;4.30;99.90;;;;;;4972011;28;20051;-60
2022/04/01 03:58:07;;;;;;;0.10;0.10;;;4.30;99.90;;;;;;4974070;28;20241;-61
2022/04/01 04:00:34;;;;;;;0.38;0.38;;;4.30;99.90;;;;;;4972832;28;20031;-60
2022/04/01 04:03:07;;;;;;;1.00;0.93;;;4.30;99.90;;;;;;4973757;28;20638;-60
2022/04/01 04:05:38;;;;;;;0.17;0.17;;;4.30;99.90;;;;;;4972415;28;20115;-60
2022/04/01 04:08:06;;;;;;;0.25;0.25;;;4.30;99.90;;;;;;4970777;28;20026;-60
2022/04/01 04:10:34;;;;;;;0.30;0.30;;;4.20;99.90;;;;;;4962085;28;20118;-60
2022/04/01 04:13:06;;;;;;;0.80;0.80;;;4.20;99.90;;;;;;4954777;28;20027;-61
2022/04/01 04:15:43;;;;;;;1.17;0.98;;;4.20;99.90;;;;;;4964879;28;20077;-61
2022/04/01 04:18:15;;;;;;;0.13;0.13;;;4.30;99.90;;;;;;4972601;28;20041;-61
2022/04/01 04:20:55;;;;;;;1.02;1.02;;;4.30;99.90;;;;;;4972322;28;20030;-61
2022/04/01 04:23:53;;;;;;;0.90;0.90;;;4.30;99.90;;;;;;4973693;28;20040;-62
2022/04/01 04:26:25;;;;;;;6.25;3.20;;;4.30;99.90;;;;;;4973361;28;20114;-61
2022/04/01 04:29:00;;;;;;;0.38;0.38;;;4.30;99.90;;;;;;4973272;28;20026;-61
2022/04/01 04:31:33;;;;;;;0.57;0.57;;;4.30;99.90;;;;;;4972240;28;20026;-62
2022/04/01 04:34:04;;;;;;;0.43;0.32;;;4.20;99.90;;;;;;4973544;28;20039;-61
2022/04/01 04:36:42;;;;;;;0.10;0.10;;;4.20;99.90;;;;;;4973085;28;20117;-62
2022/04/01 04:39:33;;;;;;;0.75;0.75;;;4.20;99.90;;;;;;4971936;28;20034;-61
2022/04/01 04:42:04;;;;;;;0.35;0.35;;;4.20;99.90;;;;;;4931348;28;20050;-60
2022/04/01 04:44:30;;;;;;;3.53;1.67;;;4.10;99.90;;;;;;4987658;28;20035;-60
2022/04/01 04:47:07;;;;;;;0.47;0.47;;;4.10;99.90;;;;;;4972896;28;20450;-60
2022/04/01 04:49:34;;;;;;;0.50;0.50;;;4.10;99.90;;;;;;4971886;28;20508;-60
2022/04/01 04:52:01;;;;;;;0.05;0.05;;;4.10;99.90;;;;;;4972884;28;20759;-60
2022/04/01 04:54:26;;;;;;;4.20;1.15;;;4.10;99.90;;;;;;4971648;28;20509;-60
2022/04/01 04:56:53;;;;;;;0.13;0.13;;;4.10;99.90;;;;;;4972678;28;20035;-60
2022/04/01 04:59:20;;;;;;;2.83;1.27;;;4.00;99.90;;;;;;4971667;28;20049;-59
2022/04/01 05:02:01;;;;;;;0.60;0.60;;;4.00;99.90;;;;;;4973459;28;20058;-60
2022/04/01 05:05:07;;;;;;;0.25;0.25;;;4.00;99.90;;;;;;4979474;28;20031;-58
2022/04/01 05:08:08;;;;;;;1.30;1.20;;;4.00;99.90;;;;;;4952758;28;20035;-58
2022/04/01 05:10:53;;;;;;;1.67;1.58;;;4.00;99.90;;;;;;4958258;28;20023;-58
2022/04/01 05:13:29;;;;;;;7.97;2.05;;;4.00;99.90;;;;;;4953403;28;20039;-60
2022/04/01 05:16:07;;;;;;;0.43;0.43;;;4.00;99.90;;;;;;4919897;28;20388;-59
2022/04/01 05:19:03;;;;;;;0.10;0.10;;;4.00;99.90;;;;;;4951365;29;20019;-60
2022/04/01 05:21:55;;;;;;;0.13;0.13;;;4.10;99.90;;;;;;4951886;29;20039;-60
2022/04/01 05:24:32;;;;;;;1.13;0.88;;;4.10;99.90;;;;;;4958355;28;20039;-60
2022/04/01 05:27:02;;;;;;;1.77;1.10;;;4.10;99.90;;;;;;4958957;28;20023;-60
2022/04/01 05:29:40;;;;;;;0.25;0.25;;;4.10;99.90;;;;;;4951159;29;20118;-59
2022/04/01 05:32:10;;;;;;;0.45;0.45;;;4.20;99.90;;;;;;4968161;28;20029;-59
2022/04/01 05:34:46;;;;;;;0.10;0.10;;;4.20;99.90;;;;;;4970657;28;20074;-60
2022/04/01 05:37:15;;;;;;;0.10;0.10;;;4.10;99.90;;;;;;4970523;28;20031;-58
2022/04/01 05:39:49;;;;;;;0.47;0.30;;;4.10;99.90;;;;;;4971797;28;20023;-59
2022/04/01 05:42:18;;;;;;;0.50;0.50;;;4.10;99.90;;;;;;4971998;28;20030;-59
2022/04/01 05:44:43;;;;;;;0.38;0.38;;;4.10;99.90;;;;;;4971742;28;20031;-60
2022/04/01 05:47:10;;;;;;;0.20;0.20;;;4.10;99.90;;;;;;4970039;28;20066;-60
2022/04/01 05:49:41;;;;;;;0.47;0.47;;;4.20;99.90;;;;;;4971586;28;20120;-58
2022/04/01 05:52:12;;;;;;;0.40;0.40;;;4.20;99.90;;;;;;4971401;28;20105;-59
2022/04/01 05:54:42;;;;;;;0.30;0.30;;;4.20;99.90;;;;;;4970883;28;20054;-58
2022/04/01 05:57:10;;;;;;;3.85;2.45;;;4.20;99.90;;;;;;4971409;28;20035;-60
2022/04/01 05:59:37;;;;;;;0.52;0.52;;;4.20;99.90;;;;;;4970398;28;20128;-59
2022/04/01 06:02:36;;;;;;;0.65;0.65;;;4.20;99.90;;;;;;4962444;28;20031;-59
2022/04/01 06:05:35;;;;;;;0.30;0.30;;;4.20;99.90;;;;;;4967434;28;20054;-59
2022/04/01 06:08:17;;;;;;;0.32;0.32;;;4.20;99.90;;;;;;4950872;29;20038;-59
2022/04/01 06:11:19;;;;;;;0.43;0.43;;;4.20;99.90;;;;;;4952360;28;20043;-59
2022/04/01 06:14:04;;;;;;;0.00;0.00;;;4.20;99.90;;;;;;4935880;29;20039;-58
2022/04/01 06:16:38;;;;;;;0.10;0.10;;;4.20;99.90;;;;;;4952389;28;20098;-57
2022/04/01 06:19:23;;;;;;;0.30;0.30;;;4.20;99.90;;;;;;4948024;28;20032;-60
2022/04/01 06:22:02;;;;;;;0.10;0.10;;;4.20;99.90;;;;;;4968394;28;20034;-61
2022/04/01 06:25:04;;;;;;;0.10;0.10;;;4.10;99.90;;;;;;4946264;28;20511;-61
2022/04/01 06:27:54;;;;;;;3.10;2.28;;;4.10;99.90;;;;;;4962488;28;20043;-61
2022/04/01 06:30:22;;;;;;;1.73;1.63;;;4.10;99.90;;;;;;4948795;28;20546;-60
2022/04/01 06:33:35;;;;;;;3.50;2.47;;;4.10;99.90;;;;;;4938490;29;20035;-61
2022/04/01 06:36:06;;;;;;;0.50;0.50;;;4.10;99.90;;;;;;4950862;29;20031;-60
2022/04/01 06:38:41;;;;;;;5.05;3.53;;;4.20;99.90;;;;;;4951103;28;20034;-59
2022/04/01 06:41:12;;;;;;;0.15;0.15;;;4.10;99.90;;;;;;4958207;28;20117;-60
2022/04/01 06:43:38;;;;;;;0.25;0.25;;;4.10;99.90;;;;;;4971281;28;20038;-61
2022/04/01 06:46:05;;;;;;;0.20;0.20;;;4.10;99.90;;;;;;4954940;28;20031;-61
2022/04/01 06:48:31;;;;;;;1.17;0.50;;;4.10;99.90;;;;;;4949850;28;20034;-59
2022/04/01 06:50:57;;;;;;;0.20;0.20;;;4.20;99.90;;;;;;4952449;28;20027;-56
2022/04/01 06:53:24;;;;;;;0.52;0.52;;;4.20;99.90;;;;;;4949450;28;20027;-57
2022/04/01 06:55:49;;;;;;;2.67;1.25;;;4.20;99.90;;;;;;4947328;28;20046;-58
2022/04/01 06:58:15;;;;;;;0.20;0.20;;;4.20;99.90;;;;;;4967750;28;20039;-58
2022/04/01 07:00:41;;;;;;;0.20;0.20;;;4.20;99.90;;;;;;4997541;23;20035;-61
2022/04/01 07:03:09;;;;;;;0.05;0.05;;;4.20;99.90;;;;;;4998010;28;20030;-61
2022/04/01 07:05:35;;;;;;;0.05;0.05;;;4.20;99.90;;;;;;4987855;28;20113;-61
2022/04/01 07:08:06;;;;;;;0.10;0.10;;;4.20;99.90;;;;;;4993308;28;20034;-61
2022/04/01 07:10:32;;;;;;;0.22;0.22;;;4.20;99.90;;;;;;4996361;28;20117;-62
2022/04/01 07:12:59;;;;;;;0.10;0.10;;;4.20;99.90;;;;;;4998900;28;20044;-59
2022/04/01 07:15:25;;;;;;;0.55;0.55;;;4.20;99.90;;;;;;4988490;28;20199;-59
2022/04/01 07:17:52;;;;;;;0.32;0.30;;;4.20;99.90;;;;;;4987568;28;20026;-59
2022/04/01 07:20:20;;;;;;;0.03;0.03;;;4.20;99.90;;;;;;4986890;28;20462;-59
2022/04/01 07:22:46;;;;;;;0.50;0.50;;;4.20;99.90;;;;;;4986386;28;20498;-59
2022/04/01 07:25:12;;;;;;;1.40;0.93;;;4.20;99.90;;;;;;4987245;28;20030;-60
2022/04/01 07:27:39;;;;;;;5.53;2.08;;;4.20;99.90;;;;;;4988831;28;20038;-60
2022/04/01 07:30:08;;;;;;;0.85;0.85;;;4.20;99.90;;;;;;4989455;28;20474;-60
2022/04/01 07:32:35;;;;;;;0.10;0.10;;;4.20;99.90;;;;;;4992777;28;20540;-59
2022/04/01 07:35:09;;;;;;;0.28;0.28;;;4.10;99.90;;;;;;4992914;28;20038;-60
2022/04/01 07:37:35;;;;;;;0.20;0.20;;;4.10;99.90;;;;;;4993353;28;20030;-60
2022/04/01 07:40:01;;;;;;;0.10;0.10;;;4.10;99.90;;;;;;4990515;28;20348;-60
2022/04/01 07:42:29;;;;;;;0.10;0.10;;;4.10;99.90;;;;;;4992111;28;20049;-60
2022/04/01 07:44:55;;;;;;;1.00;0.95;;;4.10;99.90;;;;;;4991013;28;20034;-59
2022/04/01 07:47:22;;;;;;;0.73;0.73;;;4.10;99.90;;;;;;4975630;28;20105;-60
2022/04/01 07:49:51;;;;;;;1.50;1.40;;;4.10;99.90;;;;;;4991274;28;20101;-60
2022/04/01 07:52:19;;;;;;;1.10;1.10;;;4.10;99.90;;;;;;4991895;28;20030;-60
2022/04/01 07:54:47;;;;;;;1.05;0.82;;;4.10;99.90;;;;;;4992615;28;20490;-59
2022/04/01 07:57:14;;;;;;;0.28;0.28;;;4.00;99.90;;;;;;4992656;28;20042;-60
2022/04/01 07:59:40;;;;;;;0.50;0.50;;;4.00;99.90;;;;;;4991052;28;20117;-60
2022/04/01 08:02:07;;;;;;;0.38;0.38;;;4.00;99.90;;;;;;4991489;28;20454;-60
2022/04/01 08:04:36;;;;;;;0.95;0.65;;;4.10;99.90;;;;;;4991269;28;20685;-60
2022/04/01 08:07:02;;;;;;;0.38;0.38;;;4.00;99.90;;;;;;4991321;28;20105;-60
2022/04/01 08:09:28;;;;;;;0.10;0.10;;;4.00;99.90;;;;;;4991110;28;20113;-60
2022/04/01 08:11:55;;;;;;;0.63;0.57;;;4.00;99.90;;;;;;4990859;28;20191;-60
2022/04/01 08:14:22;;;;;;;0.10;0.10;;;4.00;99.90;;;;;;4992167;28;20034;-60
2022/04/01 08:16:48;;;;;;;0.65;0.65;;;4.00;99.90;;;;;;4991114;28;20214;-60
2022/04/01 08:19:15;;;;;;;0.75;0.68;;;4.00;99.90;;;;;;4991072;28;20038;-59
2022/04/01 08:21:45;;;;;;;0.00;0.00;;;4.00;99.90;;;;;;4992504;28;20109;-60
2022/04/01 08:24:12;;;;;;;0.20;0.20;;;4.00;99.90;;;;;;4992570;28;20084;-59
2022/04/01 08:26:38;;;;;;;0.10;0.10;;;4.00;99.90;;;;;;4991766;28;20747;-60
2022/04/01 08:29:04;;;;;;;0.20;0.20;;;4.00;99.90;;;;;;4992648;28;20039;-60
2022/04/01 08:31:33;;;;;;;0.20;0.20;;;4.00;99.90;;;;;;4991973;28;20030;-60
2022/04/01 08:33:59;;;;;;;0.32;0.32;;;4.00;99.90;;;;;;4992310;28;20034;-60
2022/04/01 08:36:26;;;;;;;0.10;0.10;;;4.00;99.90;;;;;;4991964;28;20117;-60
2022/04/01 08:38:52;;;;;;;0.10;0.10;;;3.90;99.90;;;;;;4990510;28;20027;-60
2022/04/01 08:41:20;;;;;;;0.03;0.03;;;3.90;99.90;;;;;;4991693;28;20087;-60
2022/04/01 08:43:48;;;;;;;0.10;0.10;;;3.80;99.90;;;;;;4991686;28;20023;-60
2022/04/01 08:46:15;;;;;;;0.47;0.47;;;3.90;99.90;;;;;;4990506;28;20486;-60
2022/04/01 08:48:41;;;;;;;0.80;0.80;;;3.90;99.90;;;;;;4990885;28;20080;-60
2022/04/01 08:51:07;;;;;;;0.20;0.20;;;3.90;99.90;;;;;;4990440;28;20096;-60
2022/04/01 08:53:43;;;;;;;0.20;0.20;;;3.90;99.90;;;;;;4990571;28;20038;-60
2022/04/01 08:56:09;;;;;;;3.10;1.40;;;3.80;99.90;;;;;;4987735;28;20041;-60
2022/04/01 08:58:35;;;;;;;1.55;1.45;;;3.80;99.90;;;;;;4990429;28;20046;-60
2022/04/01 09:01:03;;;;;;;0.35;0.35;;;3.80;99.90;;;;;;4990859;28;20065;-60
2022/04/01 09:03:30;;;;;;;0.22;0.22;;;3.90;99.90;;;;;;4991831;28;20042;-60
2022/04/01 09:06:01;;;;;;;2.05;0.80;;;3.90;99.90;;;;;;4991274;28;20030;-60
2022/04/01 09:08:37;;;;;;;0.75;0.75;;;3.90;99.90;;;;;;4992671;28;20109;-60
2022/04/01 09:11:07;;;;;;;0.10;0.10;;;3.80;99.90;;;;;;4988083;28;20058;-60
2022/04/01 09:13:46;;;;;;;0.22;0.22;;;3.70;99.90;;;;;;5005995;28;20423;-60
2022/04/01 09:16:41;;;;;;;0.25;0.25;;;3.70;99.90;;;;;;4983723;28;20042;-60
2022/04/01 09:19:10;;;;;;;0.32;0.30;;;3.70;99.90;;;;;;4972770;28;20070;-59
2022/04/01 09:21:39;;;;;;;0.10;0.10;;;3.70;99.90;;;;;;4991564;28;20030;-60
2022/04/01 09:24:06;;;;;;;0.82;0.43;;;3.70;99.90;;;;;;4989881;28;20038;-60
2022/04/01 09:26:39;;;;;;;0.10;0.10;;;3.70;99.90;;;;;;4991140;28;20069;-59
2022/04/01 09:29:08;;;;;;;0.10;0.10;;;3.70;99.90;;;;;;4991057;28;20174;-60
2022/04/01 09:31:40;;;;;;;1.08;1.08;;;3.70;99.90;;;;;;4986479;28;20116;-60
2022/04/01 09:34:13;;;;;;;0.30;0.30;;;3.70;99.90;;;;;;4987467;28;20026;-60
2022/04/01 09:36:41;;;;;;;0.57;0.57;;;3.70;99.90;;;;;;4987604;28;20140;-60
2022/04/01 09:39:12;;;;;;;3.83;1.75;;;3.80;99.90;;;;;;4991123;28;20031;-60
2022/04/01 09:41:42;;;;;;;2.22;1.13;;;3.80;99.90;;;;;;4987902;28;20026;-61
2022/04/01 09:44:26;;;;;;;0.27;0.27;;;3.90;99.90;;;;;;4989411;28;20394;-61
2022/04/01 09:46:56;;;;;;;0.32;0.32;;;3.80;99.90;;;;;;4988637;28;20026;-59
2022/04/01 09:49:39;;;;;;;0.10;0.10;;;3.80;99.90;;;;;;4989760;28;20405;-61
2022/04/01 09:52:11;;;;;;;0.00;0.00;;;3.80;99.90;;;;;;4991077;28;20510;-60
2022/04/01 09:54:54;;;;;;;0.35;0.30;;;3.70;99.90;;;;;;4982443;28;20402;-61
2022/04/01 09:57:24;;;;;;;10.45;1.48;;;3.70;99.90;;;;;;4981702;28;20121;-61
2022/04/01 09:59:54;;;;;;;1.30;1.20;;;3.70;99.90;;;;;;4990522;28;20038;-61
2022/04/01 10:02:21;;;;;;;4.95;1.17;;;3.70;99.90;;;;;;4973580;28;20026;-59
2022/04/01 10:04:47;;;;;;;2.75;1.00;;;3.70;99.90;;;;;;4990539;28;20475;-60
2022/04/01 10:07:13;;;;;;;0.20;0.20;;;3.80;99.90;;;;;;4990931;28;20038;-60
2022/04/01 10:09:39;;;;;;;1.42;1.33;;;3.70;99.90;;;;;;4990147;28;20049;-60
2022/04/01 10:12:12;;;;;;;0.10;0.10;;;3.70;99.90;;;;;;4991208;28;20035;-60
2022/04/01 10:14:40;;;;;;;0.10;0.10;;;3.70;99.90;;;;;;4986305;28;20034;-60
2022/04/01 10:17:10;;;;;;;0.47;0.47;;;3.70;99.90;;;;;;4970278;28;20124;-59
2022/04/01 10:19:41;;;;;;;0.10;0.10;;;3.70;99.90;;;;;;4968933;28;20038;-59
2022/04/01 10:22:07;;;;;;;0.17;0.17;;;3.80;99.90;;;;;;4990037;28;20161;-61
2022/04/01 10:25:14;;;;;;;0.10;0.10;;;3.70;99.90;;;;;;4989391;28;20124;-60
2022/04/01 10:27:48;;;;;;;0.00;0.00;;;3.70;99.90;;;;;;4990996;28;20057;-60
2022/04/01 10:30:20;;;;;;;0.10;0.10;;;3.70;99.90;;;;;;4985765;28;20058;-59
2022/04/01 10:32:47;;;;;;;0.10;0.10;;;3.70;99.90;;;;;;4989693;28;20026;-62
2022/04/01 10:35:35;;;;;;;0.10;0.10;;;3.70;99.90;;;;;;4990463;28;20030;-58
2022/04/01 10:38:04;;;;;;;0.13;0.13;;;3.70;99.90;;;;;;4990477;28;20033;-60
2022/04/01 10:40:39;;;;;;;0.80;0.80;;;3.70;99.90;;;;;;4990146;28;20052;-61
2022/04/01 10:43:29;;;;;;;0.77;0.77;;;3.70;99.90;;;;;;4990883;28;20042;-60
2022/04/01 10:46:19;;;;;;;1.02;0.93;;;3.60;99.90;;;;;;4987219;28;20034;-62
2022/04/01 10:52:11;;;;;;;;;;;3.50;99.90;;;;;;4971998;28;20035;-60
2022/04/01 10:54:43;;;;;;;3.13;2.22;;;3.40;99.90;;;;;;4986142;28;20358;-61
2022/04/01 10:57:25;;;;;;;0.25;0.25;;;3.50;99.90;;;;;;4990216;28;20039;-61
2022/04/01 10:59:52;;;;;;;0.30;0.30;;;3.50;99.90;;;;;;4987710;28;20034;-60
2022/04/01 11:02:20;;;;;;;0.10;0.10;;;3.50;99.90;;;;;;4991481;28;20121;-61
2022/04/01 11:04:48;;;;;;;0.75;0.75;;;3.40;99.90;;;;;;4986683;28;20037;-60
2022/04/01 11:07:26;;;;;;;0.20;0.20;;;3.30;99.90;;;;;;4992591;28;20617;-63
2022/04/01 11:09:57;;;;;;;0.10;0.10;;;3.30;99.90;;;;;;4993490;28;20061;-60
2022/04/01 11:12:36;;;;;;;0.10;0.10;;;3.40;99.90;;;;;;4994681;28;20371;-61
2022/04/01 11:15:09;;;;;;;0.60;0.60;;;3.40;99.90;;;;;;4992712;28;20161;-62
2022/04/01 11:17:34;;;;;;;0.43;0.43;;;3.40;99.90;;;;;;4994100;28;20034;-62
2022/04/01 11:20:18;;;;;;;0.32;0.32;;;3.50;99.90;;;;;;4987295;28;20088;-61
2022/04/01 11:22:52;;;;;;;0.10;0.10;;;3.50;99.90;;;;;;4994113;28;20096;-61
2022/04/01 11:25:33;;;;;;;0.57;0.57;;;3.60;99.90;;;;;;4991131;28;20031;-61
2022/04/01 11:28:01;;;;;;;0.05;0.05;;;3.70;99.90;;;;;;4977137;28;20525;-61
2022/04/01 11:30:41;;;;;;;0.50;0.50;;;3.70;99.90;;;;;;4993307;28;20049;-60
2022/04/01 11:33:08;;;;;;;0.10;0.10;;;3.60;99.90;;;;;;4992773;28;20438;-61
2022/04/01 11:35:39;;;;;;;0.90;0.90;;;3.60;99.90;;;;;;4992308;28;20038;-61
2022/04/01 11:38:06;;;;;;;;;;;3.60;99.90;;;;;;4994089;28;20414;-61
2022/04/01 11:40:36;;;;;;;0.00;0.00;;;3.60;99.90;;;;;;4992394;28;20064;-61
2022/04/01 11:43:06;;;;;;;6.72;2.08;;;3.60;99.90;;;;;;4993587;28;20478;-61
2022/04/01 11:45:36;;;;;;;0.20;0.20;;;3.50;99.90;;;;;;4992700;28;20038;-61
2022/04/01 11:48:45;;;;;;;0.10;0.10;;;3.50;99.90;;;;;;4991034;28;20398;-61
2022/04/01 11:51:20;;;;;;;0.52;0.52;;;3.50;99.90;;;;;;4990858;28;20033;-61
2022/04/01 11:53:51;;;;;;;0.70;0.57;;;3.60;99.90;;;;;;4988567;28;20061;-61
2022/04/01 11:56:25;;;;;;;0.17;0.17;;;3.50;99.90;;;;;;4991927;28;20058;-61
2022/04/01 11:59:03;;;;;;;0.00;0.00;;;3.40;99.90;;;;;;4992978;28;20042;-62
2022/04/01 12:01:34;;;;;;;0.80;0.80;;;3.40;99.90;;;;;;4993590;28;20073;-60
2022/04/01 12:04:08;;;;;;;0.25;0.25;;;3.40;99.90;;;;;;5006657;28;20109;-61
2022/04/01 12:09:19;;;;;;;0.10;0.10;;;3.30;99.90;;;;;;4982292;28;20030;-61
2022/04/01 12:11:46;;;;;;;0.10;0.10;;;3.20;99.90;;;;;;4989405;28;20030;-61
2022/04/01 12:14:21;;;;;;;0.50;0.50;;;3.10;99.90;;;;;;4992422;28;20030;-61
2022/04/01 12:16:46;;;;;;;1.35;1.05;;;3.10;99.90;;;;;;4990711;28;20040;-61
2022/04/01 12:19:20;;;;;;;0.10;0.10;;;3.10;99.90;;;;;;4991840;28;20026;-62
2022/04/01 12:21:54;;;;;;;0.22;0.22;;;3.10;99.90;;;;;;4972635;28;20470;-59
2022/04/01 12:24:21;;;;;;;0.45;0.45;;;3.20;99.90;;;;;;4986319;28;20031;-60
2022/04/01 12:26:48;;;;;;;0.17;0.17;;;3.20;99.90;;;;;;4989787;28;20034;-62
2022/04/01 12:29:20;;;;;;;0.10;0.10;;;3.10;99.90;;;;;;4991193;28;20118;-61
2022/04/01 12:32:16;;;;;;;0.20;0.20;;;3.00;99.90;;;;;;4992995;28;20076;-61
2022/04/01 12:34:46;;;;;;;7.03;1.10;;;2.90;99.90;;;;;;4989345;28;20074;-61
2022/04/01 12:37:14;;;;;;;0.20;0.20;;;3.00;99.90;;;;;;4991216;28;20022;-62
2022/04/01 12:39:45;;;;;;;0.15;0.15;;;3.00;99.90;;;;;;4992155;28;20030;-61
2022/04/01 12:42:14;;;;;;;0.10;0.10;;;3.10;99.90;;;;;;4992753;28;20034;-61
2022/04/01 12:44:41;;;;;;;0.03;0.03;;;3.00;99.90;;;;;;4990779;28;20027;-62
2022/04/01 12:47:08;;;;;;;0.10;0.10;;;3.00;99.90;;;;;;4985413;28;20442;-62
2022/04/01 12:49:36;;;;;;;1.02;1.02;;;2.90;99.90;;;;;;4985667;28;20034;-60
2022/04/01 12:52:06;;;;;;;0.13;0.13;;;2.80;99.90;;;;;;4988808;28;20057;-59
2022/04/01 12:54:34;;;;;;;3.00;1.30;;;2.90;99.90;;;;;;4991080;28;20034;-62
2022/04/01 12:57:11;;;;;;;0.00;0.00;;;3.00;99.90;;;;;;4990807;28;20038;-61
2022/04/01 12:59:43;;;;;;;0.03;0.03;;;3.00;99.90;;;;;;5001629;23;20046;-58
2022/04/01 13:02:15;;;;;;;0.65;0.65;;;3.00;99.90;;;;;;4989822;28;20104;-54
2022/04/01 13:04:45;;;;;;;0.10;0.10;;;3.00;99.90;;;;;;5006032;28;20026;-57
2022/04/01 13:07:18;;;;;;;0.10;0.10;;;3.10;99.90;;;;;;4985680;28;20082;-56
2022/04/01 13:10:06;;;;;;;0.10;0.10;;;2.90;99.90;;;;;;4964697;28;20385;-58
2022/04/01 13:12:42;;;;;;;0.43;0.43;;;2.90;99.90;;;;;;4972850;28;20090;-58
2022/04/01 13:15:29;;;;;;;0.10;0.10;;;2.90;99.90;;;;;;4978999;28;20039;-58
2022/04/01 13:17:59;;;;;;;0.30;0.30;;;2.80;99.90;;;;;;4973285;28;20043;-57
2022/04/01 13:20:31;;;;;;;0.00;0.00;;;2.90;99.90;;;;;;4976420;28;20513;-57
2022/04/01 13:23:03;;;;;;;0.03;0.03;;;2.90;99.90;;;;;;4973288;28;20046;-59
2022/04/01 13:25:31;;;;;;;0.10;0.10;;;2.90;99.90;;;;;;4975631;28;20034;-58
2022/04/01 13:27:58;;;;;;;0.30;0.30;;;2.80;99.90;;;;;;4972190;28;20505;-55
2022/04/01 13:30:24;;;;;;;0.68;0.68;;;3.00;99.90;;;;;;4980676;28;20113;-58